メインページ
METAR-TAF:

METAR-TAF

空港 :

クアラルンプール, マレーシア

クアラルンプール国際空港

緯度: 02-44N, 経度: 101-42E, 海抜: 21m

現時点の気象観測

当レポートは15分前の01:00(UTC)に作成
の風 4kt、東/北東からの間で変化する
気温 29°C
湿度 79%
気圧 1009 hPa
視程10km以上
高度1800ftの雲はほとんどない
高度14000ftの雲は散在している
高度28000ftの千切れ雲あり

METAR: WMKK 230100Z 10004KT 060V170 9999 FEW018 SCT140 BKN280 29/25 Q1009 RETS NOSIG

時間: 09:15 (01:15 UTC)

予報

当レポートは2時間15分前の23:00(UTC)に作成
予報は23日の 00時(UTC)から 24日の 06時(UTC)まで有効
北東の風 5kt
視程10km以上
高度1700ftの雲はほとんどない, 積乱雲.
高度28000ftの千切れ雲あり
確率 30% :
23日の 00時(UTC)から 23日の 04時(UTC)まで一時的に
視程: 5000m
高度1500ftの雲はほとんどない, 積乱雲.
高度1800ftの雲は散在している
激しい雷雨, 雨
23日の 20時(UTC)から 24日の 00時(UTC)まで一時的に
視程: 4000m
高度1500ftの雲はほとんどない, 積乱雲.
高度1800ftの雲は散在している
激しい雷雨, 雨

TAF: WMKK 222300Z 2300/2406 04005KT 9999 FEW017CB BKN280 PROB30 TEMPO 2300/2304 5000 TSRA FEW015CB SCT018 TEMPO 2320/2400 4000 TSRA FEW015CB SCT018

4,000以上の空港の気象観測と天気予報(METAR報とTAF報)

利用可能な観測所は地図上に黄色い丸と赤い丸で示す。

丸の上にカーソルを重ねると観測所名を参照できる。

次にクリックすると気象観測と天気予報を参照できる。

マップの切り替え:黒色「×」印の緑ボタンをクリックして拡大、「-」印の緑ボタンをクリックして縮小、緑色の三角印をクリックして隣りの地図に切り替え


METAR-TAF: